createdAt,value
2022-10-10T00:01:25.435Z,7.19
2022-10-10T00:03:55.296Z,7.21
2022-10-10T00:06:31.935Z,7.18
2022-10-10T00:09:05.955Z,7.12
2022-10-10T00:11:35.789Z,7.09
2022-10-10T00:14:05.775Z,7.09
2022-10-10T00:16:34.873Z,7.08
2022-10-10T00:19:08.316Z,7.06
2022-10-10T00:21:37.372Z,7.04
2022-10-10T00:24:10.767Z,7.04
2022-10-10T00:26:39.856Z,7.07
2022-10-10T00:29:08.860Z,7.10
2022-10-10T00:31:37.641Z,7.10
2022-10-10T00:34:06.374Z,7.10
2022-10-10T00:36:35.225Z,7.09
2022-10-10T00:39:04.010Z,7.10
2022-10-10T00:41:32.882Z,7.12
2022-10-10T00:44:11.510Z,7.09
2022-10-10T00:46:41.128Z,7.07
2022-10-10T00:49:27.852Z,7.04
2022-10-10T00:52:00.146Z,7.01
2022-10-10T00:54:42.076Z,7.01
2022-10-10T00:57:14.808Z,6.92
2022-10-10T00:59:46.486Z,6.90
2022-10-10T01:02:15.300Z,6.89
2022-10-10T01:04:48.944Z,6.87
2022-10-10T01:07:30.382Z,6.86
2022-10-10T01:10:17.784Z,6.82
2022-10-10T01:13:34.966Z,6.79
2022-10-10T01:16:57.984Z,6.71
2022-10-10T01:20:10.855Z,6.60
2022-10-10T01:23:02.037Z,6.54
2022-10-10T01:25:59.008Z,6.48
2022-10-10T01:29:06.208Z,6.49
2022-10-10T01:31:40.000Z,6.51
2022-10-10T01:34:29.798Z,6.50
2022-10-10T01:37:21.057Z,6.48
2022-10-10T01:40:01.614Z,6.47
2022-10-10T01:42:53.210Z,6.48
2022-10-10T01:45:23.217Z,6.49
2022-10-10T01:47:56.212Z,6.55
2022-10-10T01:50:28.168Z,6.59
2022-10-10T01:53:26.613Z,6.63
2022-10-10T01:56:43.031Z,6.62
2022-10-10T01:59:24.873Z,6.61
2022-10-10T02:02:33.399Z,6.59
2022-10-10T02:05:17.188Z,6.55
2022-10-10T02:08:09.092Z,6.54
2022-10-10T02:10:51.407Z,6.56
2022-10-10T02:13:28.767Z,6.56
2022-10-10T02:16:10.414Z,6.58
2022-10-10T02:18:47.799Z,6.58
2022-10-10T02:21:18.087Z,6.57
2022-10-10T02:23:52.894Z,6.57
2022-10-10T02:26:24.110Z,6.59
2022-10-10T02:29:16.010Z,6.61
2022-10-10T02:32:07.440Z,6.57
2022-10-10T02:34:45.567Z,6.53
2022-10-10T02:37:18.897Z,6.53
2022-10-10T02:39:58.312Z,6.56
2022-10-10T02:42:29.412Z,6.54
2022-10-10T02:44:58.429Z,6.54
2022-10-10T02:47:27.629Z,6.54
2022-10-10T02:49:56.476Z,6.54
2022-10-10T02:52:27.237Z,6.55
2022-10-10T02:54:56.025Z,6.52
2022-10-10T02:57:24.761Z,6.48
2022-10-10T02:59:53.449Z,6.42
2022-10-10T03:02:24.001Z,6.38
2022-10-10T03:04:55.132Z,6.38
2022-10-10T03:07:25.392Z,6.38
2022-10-10T03:09:54.151Z,6.37
2022-10-10T03:12:23.445Z,6.34
2022-10-10T03:14:52.299Z,6.32
2022-10-10T03:17:21.027Z,6.31
2022-10-10T03:19:49.791Z,6.29
2022-10-10T03:22:18.659Z,6.26
2022-10-10T03:24:47.468Z,6.23
2022-10-10T03:27:16.385Z,6.19
2022-10-10T03:29:45.254Z,6.15
2022-10-10T03:32:18.307Z,6.11
2022-10-10T03:34:47.363Z,5.99
2022-10-10T03:37:16.209Z,5.94
2022-10-10T03:39:47.202Z,5.91
2022-10-10T03:42:17.363Z,5.89
2022-10-10T03:44:46.276Z,5.89
2022-10-10T03:47:17.418Z,5.88
2022-10-10T03:49:48.464Z,5.89
2022-10-10T03:52:22.008Z,5.88
2022-10-10T03:54:52.278Z,5.87
2022-10-10T03:57:21.126Z,5.86
2022-10-10T03:59:50.135Z,5.86
2022-10-10T04:02:18.947Z,5.85
2022-10-10T04:04:47.746Z,5.81
2022-10-10T04:07:17.056Z,5.75
2022-10-10T04:09:48.141Z,5.71
2022-10-10T04:12:17.152Z,5.67
2022-10-10T04:14:48.474Z,5.64
2022-10-10T04:17:17.421Z,5.61
2022-10-10T04:19:46.436Z,5.59
2022-10-10T04:22:16.674Z,5.57
2022-10-10T04:24:45.828Z,5.56
2022-10-10T04:27:14.632Z,5.54
2022-10-10T04:29:43.473Z,5.50
2022-10-10T04:32:12.310Z,5.49
2022-10-10T04:34:41.085Z,5.51
2022-10-10T04:37:10.029Z,5.52
2022-10-10T04:39:38.931Z,5.53
2022-10-10T04:42:07.683Z,5.53
2022-10-10T04:44:36.477Z,5.54
2022-10-10T04:47:05.352Z,5.53
2022-10-10T04:49:34.060Z,5.54
2022-10-10T04:52:02.704Z,5.56
2022-10-10T04:54:31.389Z,5.58
2022-10-10T04:57:00.178Z,5.59
2022-10-10T04:59:28.961Z,5.60
2022-10-10T05:02:01.463Z,5.61
2022-10-10T05:04:30.923Z,5.61
2022-10-10T05:06:59.724Z,5.62
2022-10-10T05:09:28.625Z,5.63
2022-10-10T05:11:57.370Z,5.62
2022-10-10T05:14:26.703Z,5.61
2022-10-10T05:16:55.592Z,5.60
2022-10-10T05:19:24.632Z,5.61
2022-10-10T05:21:53.360Z,5.59
2022-10-10T05:24:23.269Z,5.57
2022-10-10T05:26:52.241Z,5.56
2022-10-10T05:29:23.639Z,5.52
2022-10-10T05:32:04.415Z,5.48
2022-10-10T05:34:41.720Z,5.44
2022-10-10T05:37:10.694Z,5.43
2022-10-10T05:39:52.356Z,5.43
2022-10-10T05:42:23.651Z,5.44
2022-10-10T05:44:53.777Z,5.47
2022-10-10T05:47:27.566Z,5.50
2022-10-10T05:50:03.335Z,5.52
2022-10-10T05:52:35.545Z,5.56
2022-10-10T05:55:16.638Z,5.59
2022-10-10T05:57:50.674Z,5.62
2022-10-10T06:00:22.136Z,5.69
2022-10-10T06:02:53.541Z,5.75
2022-10-10T06:05:22.989Z,5.81
2022-10-10T06:08:05.734Z,5.88
2022-10-10T06:10:41.874Z,5.95
2022-10-10T06:13:20.320Z,6.03
2022-10-10T06:15:52.677Z,6.13
2022-10-10T06:18:21.702Z,6.22
2022-10-10T06:20:50.655Z,6.30
2022-10-10T06:23:20.308Z,6.38
2022-10-10T06:25:52.813Z,6.44
2022-10-10T06:28:22.357Z,6.54
2022-10-10T06:30:51.747Z,6.65
2022-10-10T06:33:20.639Z,6.76
2022-10-10T06:35:49.910Z,6.87
2022-10-10T06:38:19.434Z,6.99
2022-10-10T06:40:51.304Z,7.11
2022-10-10T06:43:20.159Z,7.16
2022-10-10T06:45:51.206Z,7.28
2022-10-10T06:48:20.476Z,7.42
2022-10-10T06:51:00.327Z,7.57
2022-10-10T06:53:36.703Z,7.75
2022-10-10T06:56:05.954Z,7.90
2022-10-10T06:58:35.669Z,8.09
2022-10-10T07:01:05.324Z,8.30
2022-10-10T07:03:34.246Z,8.55
2022-10-10T07:06:07.133Z,8.83
2022-10-10T07:09:17.776Z,9.16
2022-10-10T07:11:58.668Z,9.68
2022-10-10T07:14:27.812Z,10.21
2022-10-10T07:16:56.764Z,10.74
2022-10-10T07:19:26.160Z,11.21
2022-10-10T07:22:01.237Z,11.57
2022-10-10T07:24:32.571Z,11.91
2022-10-10T07:27:07.822Z,12.22
2022-10-10T07:29:37.718Z,12.46
2022-10-10T07:32:06.638Z,12.68
2022-10-10T07:34:38.989Z,12.86
2022-10-10T07:37:07.882Z,13.01
2022-10-10T07:39:36.995Z,13.13
2022-10-10T07:42:06.005Z,13.28
2022-10-10T07:44:35.014Z,13.40
2022-10-10T07:47:04.077Z,13.57
2022-10-10T07:49:34.303Z,13.80
2022-10-10T07:52:03.268Z,14.00
2022-10-10T07:54:33.450Z,14.29
2022-10-10T07:57:02.310Z,14.59
2022-10-10T07:59:31.196Z,14.75
2022-10-10T08:02:00.216Z,14.88
2022-10-10T08:04:29.163Z,14.95
2022-10-10T08:06:58.166Z,14.95
2022-10-10T08:09:26.959Z,15.04
2022-10-10T08:11:55.860Z,15.00
2022-10-10T08:14:26.327Z,14.96
2022-10-10T08:16:57.796Z,14.99
2022-10-10T08:19:29.595Z,14.97
2022-10-10T08:22:07.842Z,15.00
2022-10-10T08:24:40.489Z,15.04
2022-10-10T08:27:14.790Z,15.01
2022-10-10T08:29:47.724Z,15.03
2022-10-10T08:32:24.267Z,15.12
2022-10-10T08:40:05.162Z,14.83
2022-10-10T08:42:51.735Z,14.71
2022-10-10T08:45:26.638Z,14.73
2022-10-10T08:48:07.262Z,14.83
2022-10-10T08:50:55.830Z,14.92
2022-10-10T08:53:44.279Z,14.96
2022-10-10T08:56:20.965Z,14.88
2022-10-10T08:58:57.773Z,14.78
2022-10-10T09:02:17.667Z,14.70
2022-10-10T09:04:30.531Z,14.59
2022-10-10T09:07:45.801Z,14.54
2022-10-10T09:11:09.118Z,14.61
2022-10-10T09:14:00.662Z,14.60
2022-10-10T09:17:01.909Z,14.54
2022-10-10T09:19:50.332Z,14.52
2022-10-10T09:22:25.731Z,14.64
2022-10-10T09:25:03.906Z,14.76
2022-10-10T09:27:40.638Z,14.84
2022-10-10T09:30:21.249Z,14.84
2022-10-10T09:33:07.665Z,14.93
2022-10-10T09:35:39.366Z,15.08
2022-10-10T09:38:11.044Z,15.24
2022-10-10T09:40:46.820Z,15.36
2022-10-10T09:43:21.325Z,15.42
2022-10-10T09:45:54.272Z,15.64
2022-10-10T09:48:31.936Z,15.87
2022-10-10T09:51:04.665Z,16.04
2022-10-10T09:53:33.361Z,16.18
2022-10-10T09:56:04.776Z,16.32
2022-10-10T09:58:46.776Z,16.45
2022-10-10T10:01:21.352Z,16.57
2022-10-10T10:04:27.796Z,16.70
2022-10-10T10:07:29.459Z,16.79
2022-10-10T10:10:27.391Z,16.93
2022-10-10T10:12:56.980Z,17.10
2022-10-10T10:15:32.217Z,17.24
2022-10-10T10:18:13.560Z,17.30
2022-10-10T10:20:46.987Z,17.39
2022-10-10T10:24:00.429Z,17.50
2022-10-10T10:26:41.519Z,17.60
2022-10-10T10:29:28.467Z,17.64
2022-10-10T10:32:29.872Z,17.64
2022-10-10T10:35:51.170Z,17.70
2022-10-10T10:38:29.602Z,17.88
2022-10-10T10:41:09.549Z,18.07
2022-10-10T10:43:56.343Z,18.15
2022-10-10T10:46:31.729Z,18.26
2022-10-10T10:49:36.465Z,18.30
2022-10-10T10:52:39.179Z,18.29
2022-10-10T10:55:35.868Z,18.22
2022-10-10T11:01:58.128Z,18.25
2022-10-10T11:05:23.759Z,18.22
2022-10-10T11:07:29.704Z,18.10
2022-10-10T11:10:36.250Z,17.96
2022-10-10T11:13:24.563Z,17.75
2022-10-10T11:16:43.697Z,17.59
2022-10-10T11:19:10.772Z,17.43
2022-10-10T11:21:48.244Z,17.38
2022-10-10T11:24:43.215Z,17.35
2022-10-10T11:27:24.951Z,17.33
2022-10-10T11:29:56.556Z,17.33
2022-10-10T11:32:40.467Z,17.23
2022-10-10T11:35:36.851Z,17.09
2022-10-10T11:38:31.142Z,17.10
2022-10-10T11:41:26.846Z,17.19
2022-10-10T11:44:18.032Z,17.29
2022-10-10T11:47:13.497Z,17.39
2022-10-10T11:50:10.679Z,17.43
2022-10-10T11:52:56.096Z,17.45
2022-10-10T11:55:58.369Z,17.52
2022-10-10T11:58:50.936Z,17.57
2022-10-10T12:01:30.244Z,17.63
2022-10-10T12:03:58.932Z,17.68
2022-10-10T12:07:02.734Z,17.71
2022-10-10T12:09:43.864Z,17.73
2022-10-10T12:12:28.804Z,17.70
2022-10-10T12:15:04.264Z,17.65
2022-10-10T12:17:38.512Z,17.60
2022-10-10T12:20:27.493Z,17.60
2022-10-10T12:23:33.192Z,17.59
2022-10-10T12:26:02.332Z,17.59
2022-10-10T12:28:58.238Z,17.62
2022-10-10T12:31:40.247Z,17.65
2022-10-10T12:34:48.499Z,17.67
2022-10-10T12:38:04.869Z,17.63
2022-10-10T12:40:35.514Z,17.60
2022-10-10T12:43:40.508Z,17.64
2022-10-10T12:46:23.221Z,17.67
2022-10-10T12:49:22.467Z,17.74
2022-10-10T12:52:22.767Z,17.81
2022-10-10T12:54:54.178Z,17.86
2022-10-10T12:57:43.592Z,17.94
2022-10-10T13:00:25.591Z,18.00
2022-10-10T13:03:02.564Z,18.07
2022-10-10T13:05:36.110Z,18.14
2022-10-10T13:08:14.673Z,18.20
2022-10-10T13:10:51.933Z,18.24
2022-10-10T13:13:21.073Z,18.25
2022-10-10T13:15:58.123Z,18.28
2022-10-10T13:18:59.088Z,18.28
2022-10-10T13:21:34.207Z,18.24
2022-10-10T13:24:06.550Z,18.22
2022-10-10T13:26:51.426Z,18.21
2022-10-10T13:29:31.532Z,18.23
2022-10-10T13:32:06.132Z,18.21
2022-10-10T13:34:41.737Z,18.16
2022-10-10T13:37:16.574Z,18.12
2022-10-10T13:39:47.512Z,18.12
2022-10-10T13:42:36.637Z,18.11
2022-10-10T13:45:30.103Z,18.08
2022-10-10T13:48:00.422Z,18.03
2022-10-10T13:50:53.580Z,18.05
2022-10-10T13:53:29.240Z,18.03
2022-10-10T13:56:18.178Z,17.99
2022-10-10T13:58:58.884Z,17.94
2022-10-10T14:01:33.120Z,17.91
2022-10-10T14:04:32.491Z,17.86
2022-10-10T14:07:11.523Z,17.82
2022-10-10T14:09:53.372Z,17.82
2022-10-10T14:12:35.156Z,17.82
2022-10-10T14:15:25.592Z,17.83
2022-10-10T14:17:54.334Z,17.83
2022-10-10T14:20:24.209Z,17.84
2022-10-10T14:22:53.148Z,17.86
2022-10-10T14:25:22.068Z,17.85
2022-10-10T14:27:50.858Z,17.82
2022-10-10T14:30:21.892Z,17.76
2022-10-10T14:32:50.809Z,17.68
2022-10-10T14:35:19.536Z,17.60
2022-10-10T14:37:48.261Z,17.53
2022-10-10T14:40:22.688Z,17.45
2022-10-10T14:42:56.451Z,17.36
2022-10-10T14:45:28.446Z,17.28
2022-10-10T14:47:57.235Z,17.24
2022-10-10T14:50:35.586Z,17.22
2022-10-10T14:53:04.931Z,17.19
2022-10-10T14:55:33.767Z,17.15
2022-10-10T14:58:02.485Z,17.11
2022-10-10T15:00:31.247Z,17.05
2022-10-10T15:02:59.881Z,17.01
2022-10-10T15:05:28.545Z,16.98
2022-10-10T15:07:57.191Z,16.94
2022-10-10T15:10:34.409Z,16.84
2022-10-10T15:13:04.042Z,16.77
2022-10-10T15:15:32.957Z,16.75
2022-10-10T15:18:01.659Z,16.74
2022-10-10T15:20:33.108Z,16.71
2022-10-10T15:23:06.817Z,16.63
2022-10-10T15:25:35.895Z,16.54
2022-10-10T15:28:05.400Z,16.50
2022-10-10T15:30:34.171Z,16.46
2022-10-10T15:33:02.835Z,16.39
2022-10-10T15:35:50.257Z,16.33
2022-10-10T15:38:20.262Z,16.24
2022-10-10T15:41:09.231Z,16.17
2022-10-10T15:43:47.324Z,16.11
2022-10-10T15:46:15.946Z,16.07
2022-10-10T15:48:45.480Z,16.06
2022-10-10T15:51:14.329Z,16.02
2022-10-10T15:53:43.212Z,15.97
2022-10-10T15:56:16.619Z,15.94
2022-10-10T15:58:45.338Z,15.91
2022-10-10T16:01:20.077Z,15.86
2022-10-10T16:03:49.736Z,15.80
2022-10-10T16:06:21.048Z,15.73
2022-10-10T16:08:52.754Z,15.66
2022-10-10T16:11:28.499Z,15.59
2022-10-10T16:13:57.269Z,15.54
2022-10-10T16:16:28.569Z,15.49
2022-10-10T16:18:58.141Z,15.44
2022-10-10T16:21:27.831Z,15.40
2022-10-10T16:23:58.303Z,15.37
2022-10-10T16:26:33.069Z,15.34
2022-10-10T16:29:02.826Z,15.29
2022-10-10T16:31:35.289Z,15.23
2022-10-10T16:34:04.094Z,15.16
2022-10-10T16:36:36.987Z,15.14
2022-10-10T16:39:05.825Z,15.07
2022-10-10T16:41:47.510Z,15.02
2022-10-10T16:44:17.848Z,14.97
2022-10-10T16:46:46.727Z,14.90
2022-10-10T16:49:20.713Z,14.84
2022-10-10T16:51:50.470Z,14.80
2022-10-10T16:54:19.213Z,14.78
2022-10-10T16:56:55.068Z,14.75
2022-10-10T16:59:23.978Z,14.69
2022-10-10T17:01:53.997Z,14.65
2022-10-10T17:04:25.483Z,14.61
2022-10-10T17:06:54.173Z,14.56
2022-10-10T17:09:23.934Z,14.52
2022-10-10T17:11:52.756Z,14.49
2022-10-10T17:14:21.536Z,14.47
2022-10-10T17:19:38.868Z,14.38
2022-10-10T17:22:08.124Z,14.34
2022-10-10T17:24:37.380Z,14.32
2022-10-10T17:27:06.217Z,14.29
2022-10-10T17:29:34.929Z,14.24
2022-10-10T17:32:06.559Z,14.19
2022-10-10T17:34:36.419Z,14.16
2022-10-10T17:37:05.439Z,14.14
2022-10-10T17:39:34.354Z,14.13
2022-10-10T17:42:05.232Z,14.11
2022-10-10T17:44:40.358Z,14.07
2022-10-10T17:47:12.908Z,14.04
2022-10-10T17:49:46.513Z,14.00
2022-10-10T17:52:20.225Z,13.96
2022-10-10T17:54:49.847Z,13.91
2022-10-10T17:57:20.177Z,13.84
2022-10-10T17:59:48.970Z,13.79
2022-10-10T18:02:19.631Z,13.75
2022-10-10T18:04:48.307Z,13.72
2022-10-10T18:07:18.648Z,13.70
2022-10-10T18:09:51.868Z,13.67
2022-10-10T18:12:21.013Z,13.63
2022-10-10T18:14:49.703Z,13.59
2022-10-10T18:17:18.439Z,13.54
2022-10-10T18:19:47.676Z,13.50
2022-10-10T18:22:16.839Z,13.46
2022-10-10T18:24:45.604Z,13.42
2022-10-10T18:27:14.298Z,13.41
2022-10-10T18:29:43.051Z,13.38
2022-10-10T18:32:12.583Z,13.38
2022-10-10T18:34:41.424Z,13.34
2022-10-10T18:37:10.730Z,13.29
2022-10-10T18:39:41.593Z,13.23
2022-10-10T18:42:10.326Z,13.17
2022-10-10T18:44:39.525Z,13.13
2022-10-10T18:47:08.351Z,13.08
2022-10-10T18:49:37.471Z,13.06
2022-10-10T18:52:07.865Z,13.01
2022-10-10T18:54:37.297Z,13.01
2022-10-10T18:57:06.032Z,12.99
2022-10-10T18:59:34.696Z,12.98
2022-10-10T19:02:03.418Z,12.99
2022-10-10T19:04:32.201Z,12.98
2022-10-10T19:07:02.393Z,12.94
2022-10-10T19:09:31.513Z,12.89
2022-10-10T19:12:00.386Z,12.85
2022-10-10T19:14:29.276Z,12.82
2022-10-10T19:16:58.079Z,12.79
2022-10-10T19:19:28.355Z,12.77
2022-10-10T19:21:57.141Z,12.76
2022-10-10T19:24:25.956Z,12.74
2022-10-10T19:26:56.944Z,12.74
2022-10-10T19:29:26.885Z,12.74
2022-10-10T19:31:56.270Z,12.71
2022-10-10T19:34:25.097Z,12.68
2022-10-10T19:36:54.147Z,12.66
2022-10-10T19:39:22.999Z,12.65
2022-10-10T19:41:51.818Z,12.64
2022-10-10T19:44:20.467Z,12.63
2022-10-10T19:46:49.192Z,12.59
2022-10-10T19:49:17.940Z,12.58
2022-10-10T19:51:46.570Z,12.58
2022-10-10T19:54:15.239Z,12.59
2022-10-10T19:56:43.927Z,12.61
2022-10-10T19:59:12.683Z,12.62
2022-10-10T20:01:41.429Z,12.62
2022-10-10T20:04:10.150Z,12.61
2022-10-10T20:06:41.347Z,12.62
2022-10-10T20:09:11.976Z,12.61
2022-10-10T20:11:40.816Z,12.56
2022-10-10T20:14:10.586Z,12.52
2022-10-10T20:16:39.485Z,12.49
2022-10-10T20:19:08.681Z,12.48
2022-10-10T20:21:37.576Z,12.48
2022-10-10T20:24:10.305Z,12.46
2022-10-10T20:26:39.920Z,12.43
2022-10-10T20:29:08.922Z,12.41
2022-10-10T20:31:38.295Z,12.40
2022-10-10T20:34:07.394Z,12.42
2022-10-10T20:36:36.644Z,12.43
2022-10-10T20:39:09.792Z,12.45
2022-10-10T20:41:40.428Z,12.43
2022-10-10T20:44:14.248Z,12.40
2022-10-10T20:46:45.623Z,12.39
2022-10-10T20:49:21.882Z,12.42
2022-10-10T20:51:51.968Z,12.43
2022-10-10T20:54:23.987Z,12.45
2022-10-10T20:56:52.624Z,12.43
2022-10-10T20:59:27.056Z,12.30
2022-10-10T21:01:56.456Z,12.24
2022-10-10T21:04:26.232Z,12.24
2022-10-10T21:06:54.993Z,12.25
2022-10-10T21:09:24.024Z,12.25
2022-10-10T21:11:52.875Z,12.23
2022-10-10T21:14:21.723Z,12.23
2022-10-10T21:16:50.819Z,12.23
2022-10-10T21:19:20.422Z,12.23
2022-10-10T21:21:49.395Z,12.23
2022-10-10T21:24:18.477Z,12.23
2022-10-10T21:26:49.346Z,12.20
2022-10-10T21:29:18.350Z,12.14
2022-10-10T21:31:47.281Z,12.06
2022-10-10T21:34:19.006Z,12.01
2022-10-10T21:36:47.827Z,11.99
2022-10-10T21:39:16.982Z,11.97
2022-10-10T21:41:45.795Z,11.95
2022-10-10T21:44:16.035Z,11.90
2022-10-10T21:46:45.040Z,11.85
2022-10-10T21:49:13.769Z,11.83
2022-10-10T21:51:48.080Z,11.81
2022-10-10T21:54:16.886Z,11.78
2022-10-10T21:56:45.732Z,11.72
2022-10-10T21:59:14.477Z,11.72
2022-10-10T22:01:44.591Z,11.73
2022-10-10T22:04:13.397Z,11.73
2022-10-10T22:06:42.631Z,11.72
2022-10-10T22:09:11.479Z,11.72
2022-10-10T22:11:40.266Z,11.73
2022-10-10T22:14:09.036Z,11.70
2022-10-10T22:16:37.824Z,11.69
2022-10-10T22:19:06.583Z,11.66
2022-10-10T22:21:35.425Z,11.65
2022-10-10T22:24:08.117Z,11.65
2022-10-10T22:26:37.138Z,11.65
2022-10-10T22:29:05.783Z,11.65
2022-10-10T22:31:37.946Z,11.64
2022-10-10T22:34:07.525Z,11.61
2022-10-10T22:36:36.192Z,11.57
2022-10-10T22:39:05.842Z,11.54
2022-10-10T22:41:34.906Z,11.49
2022-10-10T22:44:04.584Z,11.44
2022-10-10T22:46:33.543Z,11.40
2022-10-10T22:49:02.184Z,11.39
2022-10-10T22:51:30.949Z,11.38
2022-10-10T22:53:59.691Z,11.39
2022-10-10T22:56:28.422Z,11.40
2022-10-10T22:58:57.187Z,11.40
2022-10-10T23:01:26.667Z,11.41
2022-10-10T23:04:00.509Z,11.42
2022-10-10T23:06:29.638Z,11.43
2022-10-10T23:08:58.391Z,11.41
2022-10-10T23:11:27.330Z,11.40
2022-10-10T23:13:56.099Z,11.40
2022-10-10T23:16:25.032Z,11.41
2022-10-10T23:18:53.764Z,11.40
2022-10-10T23:21:22.988Z,11.39
2022-10-10T23:23:52.003Z,11.40
2022-10-10T23:26:21.048Z,11.40
2022-10-10T23:28:50.976Z,11.37
2022-10-10T23:31:19.909Z,11.37
2022-10-10T23:33:48.667Z,11.38
2022-10-10T23:36:17.468Z,11.42
2022-10-10T23:38:47.057Z,11.46
2022-10-10T23:41:15.854Z,11.48
2022-10-10T23:43:44.960Z,11.50
2022-10-10T23:46:13.898Z,11.51
2022-10-10T23:48:43.253Z,11.53
2022-10-10T23:51:12.081Z,11.56
2022-10-10T23:53:40.781Z,11.61
2022-10-10T23:56:10.477Z,11.65
2022-10-10T23:58:39.203Z,11.68
